createdAt,value
2023-02-13T20:02:06.157Z,9.90
2023-02-13T20:03:09.915Z,10.23
2023-02-13T20:04:13.561Z,9.73
2023-02-13T20:05:17.609Z,9.63
2023-02-13T20:06:22.804Z,9.95
2023-02-13T20:07:26.400Z,9.93
2023-02-13T20:08:30.086Z,9.80
2023-02-13T20:09:33.850Z,9.55
2023-02-13T20:10:37.507Z,9.67
2023-02-13T20:11:41.813Z,9.82
2023-02-13T20:12:45.470Z,10.02
2023-02-13T20:13:53.250Z,9.73
2023-02-13T20:14:56.914Z,9.60
2023-02-13T20:16:00.564Z,10.30
2023-02-13T20:17:06.297Z,9.63
2023-02-13T20:18:09.977Z,10.30
2023-02-13T20:19:14.158Z,10.13
2023-02-13T20:20:18.078Z,10.63
2023-02-13T20:21:21.704Z,10.20
2023-02-13T20:22:25.378Z,9.85
2023-02-13T20:23:29.067Z,10.45
2023-02-13T20:24:32.947Z,10.50
2023-02-13T20:25:37.039Z,10.30
2023-02-13T20:26:40.854Z,9.70
2023-02-13T20:27:44.443Z,10.02
2023-02-13T20:28:48.375Z,10.18
2023-02-13T20:29:58.889Z,10.38
2023-02-13T20:31:11.185Z,11.13
2023-02-13T20:32:16.815Z,10.87
2023-02-13T20:33:20.491Z,10.40
2023-02-13T20:34:24.094Z,10.77
2023-02-13T20:35:27.882Z,11.18
2023-02-13T20:36:32.488Z,10.18
2023-02-13T20:37:39.428Z,10.20
2023-02-13T20:38:43.453Z,10.02
2023-02-13T20:39:49.520Z,10.52
2023-02-13T20:40:53.101Z,10.27
2023-02-13T20:41:56.726Z,9.98
2023-02-13T20:43:03.352Z,10.33
2023-02-13T20:44:09.597Z,10.02
2023-02-13T20:45:30.700Z,10.05
2023-02-13T20:46:37.237Z,9.98
2023-02-13T20:47:42.452Z,10.35
2023-02-13T20:48:47.664Z,10.17
2023-02-13T20:49:51.394Z,9.88
2023-02-13T20:51:05.057Z,10.18
2023-02-13T20:52:08.756Z,9.20
2023-02-13T20:54:38.709Z,9.97
2023-02-13T20:55:42.389Z,10.88
2023-02-13T20:56:50.818Z,10.38
2023-02-13T20:58:16.169Z,10.40
2023-02-13T20:59:19.815Z,10.27
2023-02-13T21:00:23.800Z,10.83
2023-02-13T21:01:29.232Z,9.85
2023-02-13T21:02:33.315Z,11.10
2023-02-13T21:03:38.603Z,10.23
2023-02-13T21:04:42.236Z,10.00
2023-02-13T21:05:45.868Z,10.30
2023-02-13T21:06:49.767Z,10.55
2023-02-13T21:07:53.418Z,10.15
2023-02-13T21:09:05.463Z,10.60
2023-02-13T21:10:09.728Z,9.95
2023-02-13T21:11:13.760Z,10.53
2023-02-13T21:12:17.463Z,10.15
2023-02-13T21:13:21.243Z,10.55
2023-02-13T21:14:24.903Z,10.40
2023-02-13T21:15:29.908Z,10.13
2023-02-13T21:16:35.992Z,10.10
2023-02-13T21:17:39.718Z,10.30
2023-02-13T21:18:45.442Z,10.80
2023-02-13T21:19:49.295Z,10.35
2023-02-13T21:20:53.004Z,9.93
2023-02-13T21:21:56.736Z,10.17
2023-02-13T21:23:00.490Z,11.05
2023-02-13T21:24:08.067Z,10.90
2023-02-13T21:25:12.175Z,10.57
2023-02-13T21:26:17.528Z,10.82
2023-02-13T21:27:21.230Z,11.13
2023-02-13T21:28:25.105Z,10.45
2023-02-13T21:29:28.885Z,10.88
2023-02-13T21:30:32.788Z,10.82
2023-02-13T21:31:38.731Z,10.77
2023-02-13T21:32:42.416Z,11.00
2023-02-13T21:33:47.903Z,11.38
2023-02-13T21:34:51.669Z,10.85
2023-02-13T21:36:01.961Z,10.48
2023-02-13T21:37:05.706Z,10.90
2023-02-13T21:38:09.258Z,11.17
2023-02-13T21:39:13.825Z,10.65
2023-02-13T21:40:17.725Z,11.10
2023-02-13T21:41:21.540Z,10.15
2023-02-13T21:42:25.194Z,11.30
2023-02-13T21:43:28.935Z,10.57
2023-02-13T21:44:32.584Z,10.60
2023-02-13T21:46:15.243Z,10.70
2023-02-13T21:47:09.051Z,11.10
2023-02-13T21:49:31.281Z,10.97
2023-02-13T21:50:34.869Z,10.27
2023-02-13T21:51:38.483Z,11.32
2023-02-13T21:53:03.855Z,10.88
2023-02-13T21:54:07.696Z,10.50
2023-02-13T21:55:11.373Z,10.50
2023-02-13T21:56:16.604Z,10.27
2023-02-13T21:57:20.302Z,10.65
2023-02-13T21:58:23.893Z,11.00
2023-02-13T21:59:28.022Z,10.70
2023-02-13T22:00:31.669Z,10.90
2023-02-13T22:01:36.882Z,10.80
2023-02-13T22:02:40.902Z,10.82
2023-02-13T22:03:44.904Z,10.93
2023-02-13T22:04:50.280Z,10.60
2023-02-13T22:05:54.013Z,10.17
2023-02-13T22:06:57.758Z,11.20
2023-02-13T22:08:01.420Z,10.80
2023-02-13T22:09:06.318Z,11.13
2023-02-13T22:10:11.012Z,10.52
2023-02-13T22:11:14.868Z,11.47
2023-02-13T22:12:18.574Z,11.27
2023-02-13T22:13:22.154Z,11.60
2023-02-13T22:14:25.743Z,10.88
2023-02-13T22:15:29.550Z,11.05
2023-02-13T22:16:34.480Z,10.70
2023-02-13T22:17:38.164Z,11.05
2023-02-13T22:18:43.942Z,11.15
2023-02-13T22:19:49.666Z,10.75
2023-02-13T22:20:53.345Z,10.75
2023-02-13T22:21:56.928Z,10.93
2023-02-13T22:23:00.538Z,11.65
2023-02-13T22:24:04.735Z,11.07
2023-02-13T22:25:09.294Z,10.80
2023-02-13T22:26:16.899Z,11.35
2023-02-13T22:27:20.511Z,10.93
2023-02-13T22:28:24.098Z,10.45
2023-02-13T22:29:27.772Z,11.10
2023-02-13T22:30:31.461Z,10.75
2023-02-13T22:31:35.340Z,11.02
2023-02-13T22:32:40.458Z,11.10
2023-02-13T22:33:47.425Z,10.82
2023-02-13T22:34:55.088Z,11.30
2023-02-13T22:36:00.715Z,10.68
2023-02-13T22:37:04.417Z,11.05
2023-02-13T22:38:08.368Z,11.30
2023-02-13T22:39:13.045Z,10.77
2023-02-13T22:40:16.790Z,10.88
2023-02-13T22:41:22.053Z,10.60
2023-02-13T22:42:25.752Z,10.70
2023-02-13T22:43:29.328Z,10.30
2023-02-13T22:44:33.046Z,11.23
2023-02-13T22:45:37.377Z,11.05
2023-02-13T22:46:41.089Z,11.30
2023-02-13T22:47:44.847Z,10.63
2023-02-13T22:48:48.989Z,10.60
2023-02-13T22:49:54.301Z,10.48
2023-02-13T22:50:58.218Z,10.82
2023-02-13T22:52:02.274Z,10.93
2023-02-13T22:53:05.867Z,11.43
2023-02-13T22:54:11.181Z,10.73
2023-02-13T22:55:14.797Z,11.10
2023-02-13T22:56:18.479Z,10.82
2023-02-13T22:57:22.152Z,10.80
2023-02-13T22:58:26.445Z,11.55
2023-02-13T22:59:30.144Z,10.87
2023-02-13T23:00:33.779Z,11.20
2023-02-13T23:01:37.441Z,11.57
2023-02-13T23:02:41.252Z,11.65
2023-02-13T23:03:45.542Z,11.70
2023-02-13T23:04:49.268Z,10.77
2023-02-13T23:05:54.760Z,11.55
2023-02-13T23:06:58.932Z,11.10
2023-02-13T23:08:02.727Z,11.00
2023-02-13T23:09:06.430Z,11.50
2023-02-13T23:10:10.806Z,11.30
2023-02-13T23:11:17.219Z,11.00
2023-02-13T23:12:21.004Z,11.70
2023-02-13T23:13:24.665Z,11.75
2023-02-13T23:14:28.305Z,11.75
2023-02-13T23:15:33.415Z,11.70
2023-02-13T23:16:37.968Z,11.48
2023-02-13T23:17:44.242Z,11.52
2023-02-13T23:18:52.285Z,11.88
2023-02-13T23:19:55.955Z,12.10
2023-02-13T23:21:05.936Z,12.60
2023-02-13T23:22:09.530Z,11.32
2023-02-13T23:23:13.419Z,12.32
2023-02-13T23:24:17.211Z,11.77
2023-02-13T23:25:22.058Z,12.73
2023-02-13T23:26:25.677Z,12.00
2023-02-13T23:27:29.606Z,12.43
2023-02-13T23:28:33.334Z,12.70
2023-02-13T23:29:37.112Z,12.30
2023-02-13T23:30:41.539Z,12.38
2023-02-13T23:31:45.529Z,12.83
2023-02-13T23:32:49.227Z,12.57
2023-02-13T23:33:52.888Z,13.20
2023-02-13T23:34:56.680Z,13.25
2023-02-13T23:36:01.971Z,13.07
2023-02-13T23:37:05.540Z,13.03
2023-02-13T23:38:09.104Z,13.02
2023-02-13T23:39:12.797Z,13.73
2023-02-13T23:40:18.044Z,12.80
2023-02-13T23:41:21.807Z,13.25
2023-02-13T23:42:25.490Z,13.10
2023-02-13T23:43:29.160Z,12.98
2023-02-13T23:44:32.859Z,13.52
2023-02-13T23:45:36.487Z,12.98
2023-02-13T23:46:40.171Z,13.60
2023-02-13T23:47:43.788Z,13.50
2023-02-13T23:48:47.507Z,12.80
2023-02-13T23:49:51.260Z,13.52
2023-02-13T23:50:54.886Z,13.80
2023-02-13T23:52:00.167Z,13.88
2023-02-13T23:53:03.798Z,13.97
2023-02-13T23:54:07.561Z,14.75
2023-02-13T23:55:11.216Z,14.65
2023-02-13T23:56:14.827Z,14.65
2023-02-13T23:57:18.591Z,14.20
2023-02-13T23:58:22.273Z,14.00
2023-02-13T23:59:26.536Z,13.95
